createdAt,value
2022-11-07T00:00:32.904Z,58.86
2022-11-07T00:01:32.931Z,58.71
2022-11-07T00:02:33.088Z,63.30
2022-11-07T00:03:32.901Z,59.29
2022-11-07T00:04:33.075Z,63.58
2022-11-07T00:05:32.903Z,64.36
2022-11-07T00:06:32.879Z,58.73
2022-11-07T00:07:32.879Z,59.52
2022-11-07T00:08:32.877Z,69.90
2022-11-07T00:09:32.919Z,58.41
2022-11-07T00:10:32.890Z,58.49
2022-11-07T00:11:32.878Z,58.40
2022-11-07T00:12:32.909Z,64.48
2022-11-07T00:13:32.912Z,58.22
2022-11-07T00:14:32.857Z,58.31
2022-11-07T00:15:32.961Z,62.31
2022-11-07T00:16:32.828Z,64.29
2022-11-07T00:17:32.815Z,58.61
2022-11-07T00:18:32.850Z,59.07
2022-11-07T00:19:32.819Z,63.99
2022-11-07T00:20:33.824Z,58.74
2022-11-07T00:21:32.838Z,58.78
2022-11-07T00:22:32.819Z,58.65
2022-11-07T00:23:32.808Z,58.60
2022-11-07T00:24:32.777Z,58.12
2022-11-07T00:25:32.817Z,61.35
2022-11-07T00:26:32.874Z,60.26
2022-11-07T00:27:32.878Z,58.85
2022-11-07T00:28:32.775Z,66.01
2022-11-07T00:29:32.806Z,64.15
2022-11-07T00:30:32.745Z,58.64
2022-11-07T00:31:32.774Z,59.02
2022-11-07T00:32:32.739Z,58.58
2022-11-07T00:33:32.732Z,58.22
2022-11-07T00:34:32.743Z,58.20
2022-11-07T00:35:32.854Z,58.46
2022-11-07T00:36:32.722Z,68.38
2022-11-07T00:37:32.836Z,60.92
2022-11-07T00:38:32.862Z,58.38
2022-11-07T00:39:32.718Z,58.32
2022-11-07T00:40:32.700Z,58.50
2022-11-07T00:41:32.699Z,58.33
2022-11-07T00:42:32.728Z,59.79
2022-11-07T00:43:32.749Z,66.80
2022-11-07T00:44:32.666Z,59.72
2022-11-07T00:45:32.660Z,58.97
2022-11-07T00:46:32.753Z,64.79
2022-11-07T00:47:32.648Z,59.02
2022-11-07T00:48:32.678Z,59.25
2022-11-07T00:49:32.633Z,68.46
2022-11-07T00:50:32.623Z,60.04
2022-11-07T00:51:32.769Z,58.56
2022-11-07T00:52:32.675Z,58.69
2022-11-07T00:53:32.724Z,58.98
2022-11-07T00:54:32.614Z,65.56
2022-11-07T00:55:32.611Z,60.05
2022-11-07T00:56:32.599Z,58.90
2022-11-07T00:57:32.589Z,63.21
2022-11-07T00:58:32.573Z,58.57
2022-11-07T00:59:32.740Z,59.47
2022-11-07T01:00:32.563Z,58.77
2022-11-07T01:01:32.829Z,58.74
2022-11-07T01:02:32.706Z,65.59
2022-11-07T01:03:32.562Z,58.81
2022-11-07T01:04:32.555Z,65.14
2022-11-07T01:05:32.526Z,62.21
2022-11-07T01:06:32.524Z,58.23
2022-11-07T01:07:33.046Z,58.17
2022-11-07T01:08:32.519Z,58.24
2022-11-07T01:09:32.500Z,58.08
2022-11-07T01:10:32.522Z,58.05
2022-11-07T01:11:32.470Z,58.05
2022-11-07T01:12:32.530Z,57.56
2022-11-07T01:13:32.537Z,57.66
2022-11-07T01:14:32.486Z,58.02
2022-11-07T01:15:32.624Z,63.76
2022-11-07T01:16:32.512Z,58.05
2022-11-07T01:17:32.501Z,58.23
2022-11-07T01:18:32.453Z,57.73
2022-11-07T01:19:32.496Z,57.74
2022-11-07T01:20:32.486Z,57.73
2022-11-07T01:21:32.452Z,57.88
2022-11-07T01:22:32.426Z,57.56
2022-11-07T01:23:32.397Z,57.82
2022-11-07T01:24:32.420Z,58.69
2022-11-07T01:25:32.406Z,63.97
2022-11-07T01:26:32.411Z,57.66
2022-11-07T01:27:32.388Z,57.79
2022-11-07T01:28:32.386Z,57.62
2022-11-07T01:29:32.396Z,57.45
2022-11-07T01:30:32.370Z,57.21
2022-11-07T01:31:32.420Z,57.35
2022-11-07T01:32:32.387Z,57.45
2022-11-07T01:33:32.364Z,57.55
2022-11-07T01:34:32.336Z,57.91
2022-11-07T01:35:32.347Z,70.12
2022-11-07T01:36:32.353Z,59.27
2022-11-07T01:37:33.045Z,57.70
2022-11-07T01:38:32.317Z,65.44
2022-11-07T01:39:32.391Z,57.91
2022-11-07T01:40:32.320Z,58.04
2022-11-07T01:41:32.312Z,58.46
2022-11-07T01:42:32.297Z,57.89
2022-11-07T01:43:32.731Z,57.93
2022-11-07T01:44:32.303Z,57.76
2022-11-07T01:45:32.300Z,57.53
2022-11-07T01:46:32.263Z,57.68
2022-11-07T01:47:32.256Z,57.63
2022-11-07T01:48:32.366Z,57.72
2022-11-07T01:49:32.287Z,57.97
2022-11-07T01:50:32.284Z,58.17
2022-11-07T01:51:32.259Z,57.86
2022-11-07T01:52:32.251Z,57.83
2022-11-07T01:53:32.225Z,57.76
2022-11-07T01:54:32.561Z,58.02
2022-11-07T01:55:32.499Z,57.52
2022-11-07T01:56:33.104Z,57.45
2022-11-07T01:57:32.205Z,57.99
2022-11-07T01:58:32.196Z,58.07
2022-11-07T01:59:32.315Z,58.41
2022-11-07T02:00:32.196Z,66.18
2022-11-07T02:01:32.307Z,61.37
2022-11-07T02:02:32.332Z,69.23
2022-11-07T02:03:33.056Z,59.22
2022-11-07T02:04:32.179Z,59.42
2022-11-07T02:05:32.176Z,59.08
2022-11-07T02:06:32.142Z,59.40
2022-11-07T02:07:32.153Z,59.58
2022-11-07T02:08:32.146Z,59.68
2022-11-07T02:09:32.533Z,59.60
2022-11-07T02:10:32.132Z,59.16
2022-11-07T02:11:38.928Z,58.61
2022-11-07T02:12:32.113Z,58.66
2022-11-07T02:13:32.093Z,62.08
2022-11-07T02:14:32.151Z,63.69
2022-11-07T02:15:32.123Z,58.44
2022-11-07T02:16:33.111Z,58.82
2022-11-07T02:17:32.071Z,65.42
2022-11-07T02:18:32.066Z,67.77
2022-11-07T02:19:32.065Z,59.32
2022-11-07T02:20:32.069Z,69.22
2022-11-07T02:21:32.095Z,59.17
2022-11-07T02:22:32.061Z,58.80
2022-11-07T02:23:32.045Z,63.49
2022-11-07T02:24:32.048Z,59.19
2022-11-07T02:25:32.049Z,62.65
2022-11-07T02:26:32.035Z,59.12
2022-11-07T02:27:32.055Z,58.80
2022-11-07T02:28:32.022Z,64.24
2022-11-07T02:29:32.017Z,68.49
2022-11-07T02:30:32.062Z,63.11
2022-11-07T02:31:31.999Z,58.74
2022-11-07T02:32:32.030Z,59.00
2022-11-07T02:33:31.993Z,59.38
2022-11-07T02:34:31.985Z,72.99
2022-11-07T02:35:31.984Z,62.33
2022-11-07T02:36:31.977Z,59.68
2022-11-07T02:37:31.961Z,59.33
2022-11-07T02:38:31.983Z,59.25
2022-11-07T02:39:31.944Z,59.66
2022-11-07T02:40:31.934Z,61.91
2022-11-07T02:41:31.932Z,64.31
2022-11-07T02:42:31.922Z,59.70
2022-11-07T02:43:31.998Z,59.56
2022-11-07T02:44:32.915Z,59.46
2022-11-07T02:45:31.920Z,65.38
2022-11-07T02:46:31.972Z,59.61
2022-11-07T02:47:31.923Z,64.19
2022-11-07T02:48:31.899Z,68.40
2022-11-07T02:49:32.001Z,65.76
2022-11-07T02:50:31.889Z,59.99
2022-11-07T02:51:31.901Z,59.66
2022-11-07T02:52:31.873Z,59.63
2022-11-07T02:53:31.885Z,61.51
2022-11-07T02:54:31.965Z,66.35
2022-11-07T02:55:31.853Z,58.75
2022-11-07T02:56:31.844Z,60.00
2022-11-07T02:57:31.850Z,67.11
2022-11-07T02:58:31.856Z,58.53
2022-11-07T02:59:31.838Z,59.12
2022-11-07T03:00:31.850Z,64.39
2022-11-07T03:01:31.892Z,64.17
2022-11-07T03:02:32.034Z,65.03
2022-11-07T03:03:31.793Z,66.75
2022-11-07T03:04:31.789Z,61.89
2022-11-07T03:05:31.825Z,59.59
2022-11-07T03:06:31.785Z,69.75
2022-11-07T03:07:31.792Z,60.38
2022-11-07T03:08:31.763Z,63.69
2022-11-07T03:09:31.782Z,66.91
2022-11-07T03:10:31.777Z,65.74
2022-11-07T03:11:31.774Z,59.83
2022-11-07T03:12:31.741Z,67.37
2022-11-07T03:13:31.747Z,59.50
2022-11-07T03:14:31.756Z,69.57
2022-11-07T03:15:31.728Z,76.29
2022-11-07T03:16:31.740Z,64.50
2022-11-07T03:17:31.707Z,64.68
2022-11-07T03:18:31.714Z,60.13
2022-11-07T03:19:31.711Z,59.36
2022-11-07T03:20:31.724Z,59.10
2022-11-07T03:21:31.691Z,58.83
2022-11-07T03:22:31.715Z,59.38
2022-11-07T03:23:31.677Z,65.56
2022-11-07T03:24:31.664Z,63.71
2022-11-07T03:25:31.671Z,64.71
2022-11-07T03:26:31.649Z,59.43
2022-11-07T03:27:31.760Z,59.22
2022-11-07T03:28:31.642Z,70.45
2022-11-07T03:29:31.637Z,59.23
2022-11-07T03:30:32.483Z,67.39
2022-11-07T03:31:31.650Z,72.95
2022-11-07T03:32:31.617Z,69.25
2022-11-07T03:33:31.660Z,64.19
2022-11-07T03:34:31.622Z,68.45
2022-11-07T03:35:31.605Z,68.42
2022-11-07T03:36:31.607Z,62.72
2022-11-07T03:37:31.582Z,72.57
2022-11-07T03:38:31.620Z,65.90
2022-11-07T03:39:31.569Z,59.66
2022-11-07T03:40:31.564Z,59.16
2022-11-07T03:41:31.585Z,69.49
2022-11-07T03:42:31.583Z,64.30
2022-11-07T03:43:31.570Z,60.61
2022-11-07T03:44:31.598Z,73.14
2022-11-07T03:45:32.544Z,65.29
2022-11-07T03:46:31.532Z,63.99
2022-11-07T03:47:31.562Z,69.86
2022-11-07T03:48:31.519Z,68.41
2022-11-07T03:49:31.590Z,64.07
2022-11-07T03:50:31.520Z,60.15
2022-11-07T03:51:31.506Z,70.18
2022-11-07T03:52:31.512Z,68.75
2022-11-07T03:53:31.503Z,68.46
2022-11-07T03:54:31.497Z,65.85
2022-11-07T03:55:31.521Z,70.59
2022-11-07T03:56:31.498Z,63.67
2022-11-07T03:57:31.480Z,69.67
2022-11-07T03:58:31.481Z,74.10
2022-11-07T03:59:31.471Z,69.09
2022-11-07T04:00:31.494Z,68.24
2022-11-07T04:01:31.554Z,70.92
2022-11-07T04:02:31.596Z,65.90
2022-11-07T04:03:31.444Z,71.12
2022-11-07T04:04:32.452Z,76.26
2022-11-07T04:05:31.422Z,70.37
2022-11-07T04:06:31.457Z,77.13
2022-11-07T04:07:31.411Z,68.82
2022-11-07T04:08:31.420Z,76.36
2022-11-07T04:09:31.405Z,76.29
2022-11-07T04:10:31.414Z,69.54
2022-11-07T04:11:31.547Z,71.55
2022-11-07T04:12:31.396Z,65.40
2022-11-07T04:13:31.377Z,75.35
2022-11-07T04:14:32.381Z,66.05
2022-11-07T04:15:31.381Z,72.26
2022-11-07T04:16:31.368Z,76.40
2022-11-07T04:17:31.394Z,66.19
2022-11-07T04:18:32.140Z,76.02
2022-11-07T04:19:31.346Z,72.95
2022-11-07T04:20:31.363Z,69.08
2022-11-07T04:21:31.324Z,64.57
2022-11-07T04:22:31.377Z,59.63
2022-11-07T04:23:32.077Z,75.46
2022-11-07T04:24:31.315Z,71.48
2022-11-07T04:25:31.318Z,80.56
2022-11-07T04:26:31.313Z,65.71
2022-11-07T04:27:31.303Z,66.72
2022-11-07T04:28:31.389Z,75.59
2022-11-07T04:29:31.326Z,72.55
2022-11-07T04:30:31.289Z,72.72
2022-11-07T04:31:31.283Z,77.82
2022-11-07T04:32:31.273Z,70.28
2022-11-07T04:33:31.316Z,74.82
2022-11-07T04:34:31.256Z,63.06
2022-11-07T04:35:31.238Z,77.09
2022-11-07T04:36:31.243Z,70.87
2022-11-07T04:37:31.230Z,75.50
2022-11-07T04:38:31.224Z,62.69
2022-11-07T04:39:31.246Z,75.87
2022-11-07T04:40:31.232Z,65.98
2022-11-07T04:41:31.212Z,75.76
2022-11-07T04:42:31.208Z,73.87
2022-11-07T04:43:31.188Z,63.81
2022-11-07T04:44:31.245Z,75.34
2022-11-07T04:45:31.188Z,72.91
2022-11-07T04:46:31.189Z,73.62
2022-11-07T04:47:31.173Z,66.42
2022-11-07T04:48:31.166Z,71.30
2022-11-07T04:49:31.164Z,74.67
2022-11-07T04:50:31.200Z,76.58
2022-11-07T04:51:31.154Z,66.71
2022-11-07T04:52:31.198Z,77.72
2022-11-07T04:53:31.137Z,61.76
2022-11-07T04:54:31.148Z,70.84
2022-11-07T04:55:31.242Z,73.31
2022-11-07T04:56:34.442Z,76.57
2022-11-07T04:57:32.119Z,70.91
2022-11-07T04:58:31.115Z,69.41
2022-11-07T04:59:31.106Z,69.25
2022-11-07T05:00:31.103Z,69.01
2022-11-07T05:01:31.167Z,70.77
2022-11-07T05:02:31.153Z,73.23
2022-11-07T05:03:31.076Z,75.52
2022-11-07T05:04:31.073Z,71.74
2022-11-07T05:05:31.066Z,75.96
2022-11-07T05:06:31.099Z,73.69
2022-11-07T05:07:31.061Z,73.24
2022-11-07T05:08:31.040Z,72.48
2022-11-07T05:09:31.029Z,73.94
2022-11-07T05:10:31.038Z,81.61
2022-11-07T05:11:31.039Z,70.32
2022-11-07T05:12:31.112Z,77.96
2022-11-07T05:13:30.997Z,78.09
2022-11-07T05:14:31.031Z,82.06
2022-11-07T05:15:31.019Z,75.44
2022-11-07T05:16:31.013Z,75.48
2022-11-07T05:17:31.007Z,79.21
2022-11-07T05:18:30.980Z,72.81
2022-11-07T05:19:30.996Z,74.85
2022-11-07T05:20:30.992Z,82.03
2022-11-07T05:21:30.979Z,85.27
2022-11-07T05:22:30.976Z,67.21
2022-11-07T05:23:31.081Z,76.78
2022-11-07T05:24:30.947Z,76.84
2022-11-07T05:25:30.936Z,67.16
2022-11-07T05:26:30.975Z,78.22
2022-11-07T05:27:30.963Z,74.33
2022-11-07T05:28:38.309Z,78.61
2022-11-07T05:29:32.915Z,74.21
2022-11-07T05:30:30.907Z,73.13
2022-11-07T05:31:30.888Z,78.87
2022-11-07T05:32:30.925Z,73.55
2022-11-07T05:33:30.893Z,84.55
2022-11-07T05:34:30.995Z,78.77
2022-11-07T05:35:30.880Z,75.46
2022-11-07T05:36:30.879Z,69.95
2022-11-07T05:37:30.856Z,80.47
2022-11-07T05:38:30.856Z,72.75
2022-11-07T05:39:30.902Z,82.10
2022-11-07T05:40:30.871Z,77.39
2022-11-07T05:41:30.860Z,81.88
2022-11-07T05:42:30.848Z,79.53
2022-11-07T05:43:30.832Z,82.46
2022-11-07T05:44:30.824Z,80.81
2022-11-07T05:45:30.854Z,78.76
2022-11-07T05:46:30.808Z,80.08
2022-11-07T05:47:30.815Z,82.97
2022-11-07T05:48:31.093Z,76.16
2022-11-07T05:49:30.846Z,76.09
2022-11-07T05:50:31.024Z,74.02
2022-11-07T05:51:30.817Z,78.18
2022-11-07T05:52:30.816Z,73.04
2022-11-07T05:53:30.841Z,72.83
2022-11-07T05:54:30.766Z,76.77
2022-11-07T05:55:30.777Z,74.86
2022-11-07T05:56:30.779Z,77.85
2022-11-07T05:57:30.770Z,81.40
2022-11-07T05:58:30.889Z,83.98
2022-11-07T05:59:30.737Z,74.77
2022-11-07T06:00:30.744Z,77.68
2022-11-07T06:01:30.864Z,78.47
2022-11-07T06:02:30.797Z,71.27
2022-11-07T06:03:30.708Z,82.11
2022-11-07T06:04:30.716Z,79.98
2022-11-07T06:05:30.706Z,81.44
2022-11-07T06:06:30.697Z,73.80
2022-11-07T06:07:30.799Z,78.95
2022-11-07T06:08:30.822Z,77.35
2022-11-07T06:09:30.687Z,80.73
2022-11-07T06:10:30.648Z,81.28
2022-11-07T06:11:30.711Z,72.18
2022-11-07T06:12:30.682Z,73.24
2022-11-07T06:13:30.672Z,81.73
2022-11-07T06:14:30.649Z,83.01
2022-11-07T06:15:30.644Z,81.71
2022-11-07T06:16:30.630Z,76.20
2022-11-07T06:17:30.653Z,79.26
2022-11-07T06:18:30.742Z,80.18
2022-11-07T06:19:30.635Z,81.97
2022-11-07T06:20:30.607Z,82.68
2022-11-07T06:21:30.614Z,82.64
2022-11-07T06:22:30.594Z,82.81
2022-11-07T06:23:30.708Z,83.52
2022-11-07T06:24:30.582Z,85.34
2022-11-07T06:25:30.584Z,78.08
2022-11-07T06:26:30.575Z,76.88
2022-11-07T06:27:30.564Z,74.91
2022-11-07T06:28:30.550Z,83.43
2022-11-07T06:29:30.597Z,84.58
2022-11-07T06:30:30.695Z,82.92
2022-11-07T06:31:30.556Z,78.19
2022-11-07T06:32:30.541Z,67.24
2022-11-07T06:33:30.530Z,80.04
2022-11-07T06:34:30.563Z,85.47
2022-11-07T06:35:30.515Z,78.71
2022-11-07T06:36:30.526Z,86.39
2022-11-07T06:37:30.528Z,82.96
2022-11-07T06:38:30.507Z,81.83
2022-11-07T06:39:30.509Z,82.81
2022-11-07T06:40:30.610Z,77.02
2022-11-07T06:41:30.493Z,77.51
2022-11-07T06:42:30.473Z,81.69
2022-11-07T06:43:33.699Z,82.71
2022-11-07T06:44:31.069Z,76.86
2022-11-07T06:45:30.476Z,74.47
2022-11-07T06:46:30.460Z,83.02
2022-11-07T06:47:30.456Z,88.96
2022-11-07T06:48:30.440Z,80.92
2022-11-07T06:49:30.425Z,80.13
2022-11-07T06:50:30.426Z,85.30
2022-11-07T06:51:30.539Z,85.56
2022-11-07T06:52:30.405Z,77.59
2022-11-07T06:53:30.404Z,76.96
2022-11-07T06:54:30.416Z,84.04
2022-11-07T06:55:30.418Z,75.76
2022-11-07T06:56:30.489Z,85.67
2022-11-07T06:57:30.378Z,84.13
2022-11-07T06:58:30.385Z,83.77
2022-11-07T06:59:30.381Z,83.65
2022-11-07T07:00:30.449Z,80.07
2022-11-07T07:01:30.553Z,74.34
2022-11-07T07:02:56.875Z,83.08
2022-11-07T07:03:32.348Z,83.46
2022-11-07T07:04:30.367Z,83.28
2022-11-07T07:05:30.335Z,78.33
2022-11-07T07:06:30.343Z,80.06
2022-11-07T07:07:30.461Z,75.13
2022-11-07T07:08:30.313Z,84.00
2022-11-07T07:09:30.308Z,84.45
2022-11-07T07:10:30.391Z,72.08
2022-11-07T07:11:30.298Z,80.38
2022-11-07T07:12:30.297Z,81.09
2022-11-07T07:13:30.329Z,81.86
2022-11-07T07:14:30.300Z,78.91
2022-11-07T07:15:38.550Z,76.06
2022-11-07T07:16:30.283Z,82.40
2022-11-07T07:17:30.261Z,75.44
2022-11-07T07:18:30.365Z,77.54
2022-11-07T07:19:30.246Z,80.40
2022-11-07T07:20:30.330Z,76.94
2022-11-07T07:21:30.255Z,83.11
2022-11-07T07:22:30.243Z,77.03
2022-11-07T07:23:30.232Z,73.94
2022-11-07T07:24:30.254Z,77.17
2022-11-07T07:25:30.207Z,77.06
2022-11-07T07:26:30.226Z,81.61
2022-11-07T07:27:30.189Z,83.48
2022-11-07T07:28:30.190Z,80.03
2022-11-07T07:29:30.220Z,77.01
2022-11-07T07:30:30.288Z,82.12
2022-11-07T07:31:30.184Z,77.03
2022-11-07T07:32:30.219Z,80.40
2022-11-07T07:33:30.167Z,74.28
2022-11-07T07:34:30.258Z,75.95
2022-11-07T07:35:30.191Z,72.38
2022-11-07T07:36:30.142Z,74.62
2022-11-07T07:37:30.151Z,80.06
2022-11-07T07:38:30.538Z,81.73
2022-11-07T07:39:30.143Z,73.60
2022-11-07T07:40:30.136Z,77.94
2022-11-07T07:41:30.130Z,69.09
2022-11-07T07:42:30.127Z,74.11
2022-11-07T07:43:30.121Z,75.91
2022-11-07T07:44:30.092Z,82.76
2022-11-07T07:45:30.101Z,77.02
2022-11-07T07:46:30.103Z,79.04
2022-11-07T07:47:30.085Z,86.37
2022-11-07T07:48:30.073Z,73.14
2022-11-07T07:49:30.071Z,83.57
2022-11-07T07:50:30.152Z,74.26
2022-11-07T07:51:30.095Z,82.02
2022-11-07T07:52:30.038Z,73.45
2022-11-07T07:53:30.067Z,86.49
2022-11-07T07:54:30.053Z,70.56
2022-11-07T07:55:30.044Z,71.02
2022-11-07T07:56:30.030Z,76.49
2022-11-07T07:57:30.053Z,75.01
2022-11-07T07:58:30.004Z,75.81
2022-11-07T07:59:30.005Z,77.37
2022-11-07T08:00:29.989Z,76.33
2022-11-07T08:01:30.096Z,84.45
2022-11-07T08:02:30.070Z,72.51
2022-11-07T08:03:50.578Z,73.01
2022-11-07T08:04:31.966Z,79.31
2022-11-07T08:05:29.980Z,78.19
2022-11-07T08:06:30.061Z,73.98
2022-11-07T08:07:29.964Z,67.20
2022-11-07T08:08:33.925Z,76.44
2022-11-07T08:09:30.957Z,81.19
2022-11-07T08:10:45.451Z,79.02
2022-11-07T08:11:31.935Z,77.15
2022-11-07T08:13:02.572Z,70.93
2022-11-07T08:13:29.920Z,81.33
2022-11-07T08:14:30.929Z,77.73
2022-11-07T08:15:29.915Z,76.77
2022-11-07T08:16:29.881Z,81.02
2022-11-07T08:17:29.893Z,80.43
2022-11-07T08:18:29.881Z,78.35
2022-11-07T08:19:29.914Z,74.45
2022-11-07T08:20:29.896Z,80.93
2022-11-07T08:21:29.859Z,73.34
2022-11-07T08:22:29.952Z,76.70
2022-11-07T08:23:29.874Z,74.05
2022-11-07T08:24:29.873Z,81.26
2022-11-07T08:25:29.854Z,78.58
2022-11-07T08:26:29.852Z,79.49
2022-11-07T08:27:29.929Z,78.96
2022-11-07T08:28:29.828Z,74.80
2022-11-07T08:29:29.829Z,81.24
2022-11-07T08:30:29.856Z,74.82
2022-11-07T08:31:29.866Z,81.36
2022-11-07T08:32:29.815Z,72.73
2022-11-07T08:33:29.838Z,82.58
2022-11-07T08:34:30.024Z,81.63
2022-11-07T08:35:29.827Z,75.75
2022-11-07T08:36:30.675Z,78.42
2022-11-07T08:37:30.807Z,75.45
2022-11-07T08:38:29.777Z,69.98
2022-11-07T08:39:29.770Z,81.55
2022-11-07T08:40:29.747Z,74.41
2022-11-07T08:41:29.903Z,78.82
2022-11-07T08:42:29.760Z,71.01
2022-11-07T08:43:29.739Z,84.12
2022-11-07T08:44:29.791Z,73.52
2022-11-07T08:45:29.723Z,76.97
2022-11-07T08:46:29.743Z,77.67
2022-11-07T08:47:29.756Z,74.18
2022-11-07T08:48:29.701Z,77.55
2022-11-07T08:49:29.704Z,81.89
2022-11-07T08:50:29.699Z,82.89
2022-11-07T08:51:29.683Z,72.50
2022-11-07T08:52:29.689Z,72.84
2022-11-07T08:53:29.679Z,72.93
2022-11-07T08:54:29.700Z,79.46
2022-11-07T08:55:29.672Z,67.26
2022-11-07T08:56:29.658Z,81.60
2022-11-07T08:57:30.025Z,73.91
2022-11-07T08:58:30.393Z,77.86
2022-11-07T08:59:30.637Z,74.68
2022-11-07T09:00:29.627Z,79.49
2022-11-07T09:01:29.767Z,70.57
2022-11-07T09:03:53.038Z,74.29
2022-11-07T09:04:31.723Z,74.03
2022-11-07T09:05:29.591Z,77.09
2022-11-07T09:06:29.602Z,80.94
2022-11-07T09:07:29.635Z,80.51
2022-11-07T09:08:29.603Z,70.37
2022-11-07T09:09:29.586Z,77.05
2022-11-07T09:10:29.589Z,70.47
2022-11-07T09:11:29.559Z,71.54
2022-11-07T09:12:29.546Z,82.48
2022-11-07T09:13:29.565Z,79.32
2022-11-07T09:14:29.570Z,75.55
2022-11-07T09:15:29.552Z,70.52
2022-11-07T09:16:29.597Z,80.86
2022-11-07T09:17:29.551Z,73.87
2022-11-07T09:18:29.549Z,73.39
2022-11-07T09:19:30.511Z,77.30
2022-11-07T09:20:29.522Z,81.40
2022-11-07T09:21:29.518Z,75.41
2022-11-07T09:22:30.032Z,73.37
2022-11-07T09:23:29.509Z,69.74
2022-11-07T09:24:29.592Z,75.60
2022-11-07T09:25:29.482Z,69.74
2022-11-07T09:26:29.484Z,73.17
2022-11-07T09:27:29.477Z,78.62
2022-11-07T09:28:30.175Z,73.60
2022-11-07T09:29:29.614Z,78.27
2022-11-07T09:30:29.468Z,77.87
2022-11-07T09:31:29.691Z,78.65
2022-11-07T09:32:45.803Z,75.81
2022-11-07T09:33:31.457Z,72.26
2022-11-07T09:34:29.420Z,79.75
2022-11-07T09:35:29.553Z,82.73
2022-11-07T09:36:29.409Z,77.70
2022-11-07T09:37:29.410Z,78.88
2022-11-07T09:38:29.418Z,78.67
2022-11-07T09:39:29.400Z,73.55
2022-11-07T09:40:29.405Z,77.30
2022-11-07T09:41:29.404Z,81.46
2022-11-07T09:42:30.099Z,76.31
2022-11-07T09:43:29.397Z,73.74
2022-11-07T09:44:32.401Z,79.02
2022-11-07T09:45:30.093Z,82.46
2022-11-07T09:46:29.483Z,77.99
2022-11-07T09:47:29.383Z,77.31
2022-11-07T09:48:29.325Z,76.89
2022-11-07T09:49:29.346Z,78.06
2022-11-07T09:50:29.343Z,73.34
2022-11-07T09:51:29.601Z,74.53
2022-11-07T09:52:29.308Z,74.86
2022-11-07T09:53:29.335Z,76.38
2022-11-07T09:54:29.317Z,79.87
2022-11-07T09:55:29.320Z,75.52
2022-11-07T09:56:29.297Z,77.35
2022-11-07T09:57:29.399Z,70.60
2022-11-07T09:58:29.304Z,78.27
2022-11-07T09:59:29.302Z,68.30
2022-11-07T10:00:29.269Z,81.77
2022-11-07T10:01:29.391Z,74.76
2022-11-07T10:02:29.461Z,77.49
2022-11-07T10:03:29.414Z,80.22
2022-11-07T10:04:29.245Z,74.34
2022-11-07T10:05:29.255Z,73.30
2022-11-07T10:06:29.242Z,75.54
2022-11-07T10:07:29.230Z,78.21
2022-11-07T10:08:29.269Z,75.54
2022-11-07T10:09:29.213Z,69.57
2022-11-07T10:10:29.216Z,77.98
2022-11-07T10:11:29.198Z,81.09
2022-11-07T10:12:29.231Z,81.44
2022-11-07T10:13:29.239Z,80.21
2022-11-07T10:14:29.186Z,76.54
2022-11-07T10:15:29.179Z,76.56
2022-11-07T10:16:29.203Z,73.52
2022-11-07T10:17:29.174Z,78.08
2022-11-07T10:18:29.163Z,67.33
2022-11-07T10:19:29.167Z,64.79
2022-11-07T10:20:29.141Z,75.37
2022-11-07T10:21:38.417Z,73.67
2022-11-07T10:22:31.146Z,76.52
2022-11-07T10:23:29.605Z,78.40
2022-11-07T10:24:29.164Z,72.26
2022-11-07T10:25:29.113Z,81.11
2022-11-07T10:26:29.109Z,75.82
2022-11-07T10:27:29.115Z,75.62
2022-11-07T10:28:29.089Z,79.59
2022-11-07T10:29:29.107Z,73.25
2022-11-07T10:30:29.208Z,68.46
2022-11-07T10:31:29.068Z,77.27
2022-11-07T10:32:29.061Z,76.05
2022-11-07T10:33:29.070Z,78.57
2022-11-07T10:34:29.067Z,73.25
2022-11-07T10:35:29.180Z,69.25
2022-11-07T10:36:29.041Z,77.81
2022-11-07T10:37:29.048Z,77.27
2022-11-07T10:38:29.047Z,76.71
2022-11-07T10:39:29.008Z,75.40
2022-11-07T10:40:29.015Z,78.36
2022-11-07T10:41:29.042Z,74.95
2022-11-07T10:42:29.023Z,70.91
2022-11-07T10:43:29.698Z,65.54
2022-11-07T10:44:29.007Z,71.60
2022-11-07T10:45:29.710Z,82.23
2022-11-07T10:46:29.109Z,74.43
2022-11-07T10:47:28.988Z,76.75
2022-11-07T10:48:28.975Z,80.10
2022-11-07T10:49:28.967Z,72.35
2022-11-07T10:50:28.963Z,77.77
2022-11-07T10:51:28.962Z,73.58
2022-11-07T10:52:29.077Z,71.86
2022-11-07T10:53:28.949Z,77.19
2022-11-07T10:54:28.940Z,71.37
2022-11-07T10:55:28.935Z,74.18
2022-11-07T10:56:28.927Z,65.47
2022-11-07T10:57:28.953Z,74.91
2022-11-07T10:58:28.901Z,75.99
2022-11-07T10:59:34.557Z,65.64
2022-11-07T11:00:30.920Z,81.75
2022-11-07T11:01:29.047Z,79.25
2022-11-07T11:02:28.902Z,67.05
2022-11-07T11:03:41.919Z,75.46
2022-11-07T11:04:30.873Z,73.98
2022-11-07T11:05:28.877Z,79.46
2022-11-07T11:06:28.859Z,82.19
2022-11-07T11:07:28.964Z,80.76
2022-11-07T11:08:28.880Z,76.65
2022-11-07T11:09:28.864Z,70.28
2022-11-07T11:10:28.861Z,74.35
2022-11-07T11:11:28.844Z,76.17
2022-11-07T11:12:28.835Z,75.35
2022-11-07T11:13:28.825Z,69.75
2022-11-07T11:14:29.225Z,75.36
2022-11-07T11:15:34.346Z,81.81
2022-11-07T11:16:29.825Z,67.52
2022-11-07T11:17:28.880Z,74.06
2022-11-07T11:18:28.787Z,82.52
2022-11-07T11:19:28.815Z,78.49
2022-11-07T11:20:28.790Z,72.51
2022-11-07T11:21:28.797Z,72.57
2022-11-07T11:22:29.157Z,71.35
2022-11-07T11:23:28.782Z,77.72
2022-11-07T11:24:28.769Z,70.53
2022-11-07T11:25:29.733Z,79.19
2022-11-07T11:26:28.747Z,69.58
2022-11-07T11:27:28.742Z,79.01
2022-11-07T11:28:28.738Z,79.82
2022-11-07T11:29:28.737Z,71.28
2022-11-07T11:30:28.752Z,70.22
2022-11-07T11:31:28.730Z,71.74
2022-11-07T11:32:28.728Z,79.37
2022-11-07T11:33:28.713Z,74.18
2022-11-07T11:34:28.713Z,70.43
2022-11-07T11:35:28.704Z,67.50
2022-11-07T11:36:28.717Z,75.30
2022-11-07T11:37:28.702Z,71.34
2022-11-07T11:38:28.712Z,76.89
2022-11-07T11:39:28.688Z,77.94
2022-11-07T11:40:28.670Z,75.69
2022-11-07T11:41:28.701Z,75.57
2022-11-07T11:42:28.669Z,81.34
2022-11-07T11:43:28.673Z,79.81
2022-11-07T11:44:28.664Z,73.13
2022-11-07T11:45:28.653Z,71.27
2022-11-07T11:46:28.670Z,73.06
2022-11-07T11:47:34.146Z,79.26
2022-11-07T11:48:30.637Z,75.99
2022-11-07T11:49:28.628Z,76.91
2022-11-07T11:50:28.689Z,76.84
2022-11-07T11:51:28.750Z,82.03
2022-11-07T11:52:28.635Z,74.18
2022-11-07T11:53:28.617Z,76.41
2022-11-07T11:54:28.587Z,78.59
2022-11-07T11:55:28.613Z,70.50
2022-11-07T11:56:28.594Z,77.47
2022-11-07T11:57:28.588Z,73.41
2022-11-07T11:58:28.710Z,75.13
2022-11-07T11:59:28.579Z,75.08
2022-11-07T12:00:28.558Z,78.43
2022-11-07T12:01:28.653Z,78.18
2022-11-07T12:02:28.643Z,70.76
2022-11-07T12:03:29.561Z,75.55
2022-11-07T12:04:28.568Z,77.96
2022-11-07T12:05:28.540Z,65.39
2022-11-07T12:06:28.544Z,79.59
2022-11-07T12:07:28.528Z,82.95
2022-11-07T12:08:28.518Z,75.85
2022-11-07T12:09:28.528Z,82.38
2022-11-07T12:10:28.545Z,73.77
2022-11-07T12:11:28.509Z,82.23
2022-11-07T12:12:28.516Z,80.02
2022-11-07T12:13:28.560Z,80.02
2022-11-07T12:14:28.497Z,82.03
2022-11-07T12:15:28.478Z,72.52
2022-11-07T12:16:28.484Z,75.86
2022-11-07T12:17:28.478Z,79.37
2022-11-07T12:18:28.483Z,76.10
2022-11-07T12:19:28.477Z,76.63
2022-11-07T12:20:28.460Z,81.90
2022-11-07T12:21:28.458Z,75.76
2022-11-07T12:22:28.438Z,68.53
2022-11-07T12:23:28.433Z,80.38
2022-11-07T12:24:28.476Z,76.43
2022-11-07T12:25:28.466Z,76.38
2022-11-07T12:26:28.472Z,79.10
2022-11-07T12:27:28.398Z,78.60
2022-11-07T12:28:28.407Z,78.47
2022-11-07T12:29:28.419Z,80.96
2022-11-07T12:30:28.399Z,76.68
2022-11-07T12:31:28.374Z,80.29
2022-11-07T12:32:28.376Z,73.47
2022-11-07T12:33:28.392Z,79.94
2022-11-07T12:34:28.394Z,73.58
2022-11-07T12:35:28.360Z,78.85
2022-11-07T12:36:28.363Z,75.17
2022-11-07T12:37:28.356Z,79.88
2022-11-07T12:38:28.363Z,71.07
2022-11-07T12:39:28.369Z,81.08
2022-11-07T12:40:28.344Z,71.99
2022-11-07T12:41:28.315Z,79.22
2022-11-07T12:42:28.332Z,75.48
2022-11-07T12:43:28.653Z,70.34
2022-11-07T12:44:28.326Z,79.36
2022-11-07T12:45:28.320Z,74.20
2022-11-07T12:46:28.290Z,83.79
2022-11-07T12:47:28.293Z,74.30
2022-11-07T12:48:28.323Z,82.43
2022-11-07T12:49:28.294Z,71.72
2022-11-07T12:50:28.289Z,75.40
2022-11-07T12:51:29.203Z,85.10
2022-11-07T12:52:28.405Z,75.32
2022-11-07T12:53:28.277Z,73.86